Rayford, Texas
Current Conditions -  °F | °C
As of 2:53 PM on Sunday 23 Nov 2014 (Local Time) from KIAH Reporting Station
Clear Clear  
Wind Chill: 26°   Ceiling: Unl
Heat Index: 26°   Visibility: 10mi
Dew Point: 11°   Wind: 14mph
Humidity: 38%   Direction: 220°SW
Pressure: 29.53"   Gusts: 23mph
Location:  30.0613°N, 95.3841°W
Report Text: KIAH 232053Z 22012G20KT 10SM CLR 26/11 A2953 RMK AO2 SLP999 T02610106 56031
Loading
Personal Weather Stations






























Interactive Weather Map New forecast layout! Learn more

10-Day Weather Forecast

Advertisements
Track Severe Weather on mobile